Time;durP1;ratioP1;P1;durP2;ratioP2;P2;SDS_P1;SDS_P2;PMS_P1;PMS_P2;Temp;Humidity;BMP_temperature;BMP_pressure;BME280_temperature;BME280_humidity;BME280_pressure;Samples;Min_cycle;Max_cycle;Signal;HPM_P1;HPM_P2
2021/04/07 00:01:58;;;;;;;9.13;7.60;;;;;;;;;;10002429;29;20052;-62
2021/04/07 00:06:55;;;;;;;13.20;8.73;;;;;;;;;;10002060;29;20457;-61
2021/04/07 00:11:53;;;;;;;8.35;7.03;;;;;;;;;;10002448;29;20414;-62
2021/04/07 00:16:51;;;;;;;14.05;11.48;;;;;;;;;;10001946;29;20060;-62
2021/04/07 00:21:48;;;;;;;14.20;9.38;;;;;;;;;;10001328;29;20087;-62
2021/04/07 00:26:46;;;;;;;12.10;8.07;;;;;;;;;;10002393;29;20044;-63
2021/04/07 00:31:43;;;;;;;7.95;7.15;;;;;;;;;;10000911;29;20092;-62
2021/04/07 00:36:42;;;;;;;8.27;6.65;;;;;;;;;;10001499;29;20497;-62
2021/04/07 00:41:39;;;;;;;7.65;6.68;;;;;;;;;;10001311;29;20040;-62
2021/04/07 00:46:36;;;;;;;9.73;8.30;;;;;;;;;;10000934;29;20098;-62
2021/04/07 00:51:34;;;;;;;13.38;8.55;;;;;;;;;;10000823;29;20083;-62
2021/04/07 00:56:33;;;;;;;10.32;7.00;;;;;;;;;;9999276;29;20532;-62
2021/04/07 01:01:30;;;;;;;7.70;6.40;;;;;;;;;;9999854;29;20055;-62
2021/04/07 01:06:27;;;;;;;8.50;6.78;;;;;;;;;;10000174;29;20079;-62
2021/04/07 01:11:25;;;;;;;7.47;6.72;;;;;;;;;;10000452;29;20071;-62
2021/04/07 01:16:23;;;;;;;9.68;7.63;;;;;;;;;;10000222;29;20063;-62
2021/04/07 01:21:20;;;;;;;11.05;6.82;;;;;;;;;;9998978;29;20072;-60
2021/04/07 01:26:19;;;;;;;9.90;6.82;;;;;;;;;;9999455;29;20087;-60
2021/04/07 01:31:18;;;;;;;9.07;7.68;;;;;;;;;;9999254;29;20092;-61
2021/04/07 01:36:15;;;;;;;8.82;7.22;;;;;;;;;;9998777;29;20091;-61
2021/04/07 01:41:13;;;;;;;12.05;7.72;;;;;;;;;;9999176;29;20056;-62
2021/04/07 01:46:11;;;;;;;10.45;7.53;;;;;;;;;;9998761;29;20370;-61
2021/04/07 01:51:10;;;;;;;11.30;9.00;;;;;;;;;;9999172;29;20078;-61
2021/04/07 01:56:09;;;;;;;15.73;10.50;;;;;;;;;;9998782;29;20052;-61
2021/04/07 02:01:07;;;;;;;9.23;7.80;;;;;;;;;;9998612;29;20087;-61
2021/04/07 02:06:05;;;;;;;8.68;7.78;;;;;;;;;;9998790;29;20518;-62
2021/04/07 02:11:02;;;;;;;9.15;7.28;;;;;;;;;;9999242;29;20048;-63
2021/04/07 02:16:00;;;;;;;10.20;8.30;;;;;;;;;;10005896;29;20091;-61
2021/04/07 02:20:57;;;;;;;11.68;9.10;;;;;;;;;;10005882;29;20044;-61
2021/04/07 02:25:55;;;;;;;10.75;9.40;;;;;;;;;;10006050;29;20091;-64
2021/04/07 02:30:53;;;;;;;9.60;8.57;;;;;;;;;;10005639;29;20098;-62
2021/04/07 02:35:51;;;;;;;16.23;12.80;;;;;;;;;;10005938;29;20087;-61
2021/04/07 02:40:48;;;;;;;11.57;9.80;;;;;;;;;;10005430;29;20083;-61
2021/04/07 02:45:46;;;;;;;12.35;10.43;;;;;;;;;;10005285;29;20094;-61
2021/04/07 02:50:43;;;;;;;19.45;16.05;;;;;;;;;;10005061;29;20078;-61
2021/04/07 02:55:41;;;;;;;17.48;12.68;;;;;;;;;;10005017;29;20083;-61
2021/04/07 03:00:38;;;;;;;13.10;9.35;;;;;;;;;;10004826;29;20071;-61
2021/04/07 03:05:37;;;;;;;20.20;13.98;;;;;;;;;;10004337;29;20092;-61
2021/04/07 03:10:34;;;;;;;16.73;12.68;;;;;;;;;;10004851;29;20552;-60
2021/04/07 03:15:32;;;;;;;16.45;11.40;;;;;;;;;;10035555;29;20483;-61
2021/04/07 03:20:29;;;;;;;13.90;9.93;;;;;;;;;;10019397;29;20059;-61
2021/04/07 03:25:28;;;;;;;10.80;8.30;;;;;;;;;;10003110;29;20270;-61
2021/04/07 03:30:25;;;;;;;9.57;8.57;;;;;;;;;;10004265;29;20084;-59
2021/04/07 03:35:22;;;;;;;10.60;8.40;;;;;;;;;;10004022;29;20056;-60
2021/04/07 03:40:20;;;;;;;11.00;9.60;;;;;;;;;;10002862;29;20087;-61
2021/04/07 03:45:18;;;;;;;12.85;10.80;;;;;;;;;;10003095;29;20087;-62
2021/04/07 03:50:15;;;;;;;10.90;8.68;;;;;;;;;;10003799;29;20055;-60
2021/04/07 03:55:12;;;;;;;14.45;11.55;;;;;;;;;;10003835;29;20043;-60
2021/04/07 04:00:10;;;;;;;14.45;11.57;;;;;;;;;;10002974;29;20059;-61
2021/04/07 04:05:09;;;;;;;10.07;8.88;;;;;;;;;;10003062;29;20088;-60
2021/04/07 04:10:07;;;;;;;17.02;12.13;;;;;;;;;;10003284;29;20450;-61
2021/04/07 04:15:05;;;;;;;10.38;8.88;;;;;;;;;;10002674;29;20455;-60
2021/04/07 04:20:03;;;;;;;16.75;10.93;;;;;;;;;;10002148;29;20098;-61
2021/04/07 04:25:01;;;;;;;10.73;8.60;;;;;;;;;;10002619;29;20079;-61
2021/04/07 04:29:58;;;;;;;12.68;10.30;;;;;;;;;;10001891;29;20079;-61
2021/04/07 04:34:55;;;;;;;12.48;10.45;;;;;;;;;;10000810;29;20059;-61
2021/04/07 04:39:53;;;;;;;12.30;10.43;;;;;;;;;;10002157;29;20124;-61
2021/04/07 04:44:51;;;;;;;10.73;8.98;;;;;;;;;;10001923;29;20076;-61
2021/04/07 04:49:48;;;;;;;16.60;13.82;;;;;;;;;;10000878;29;20059;-61
2021/04/07 04:54:46;;;;;;;13.05;10.23;;;;;;;;;;9999035;29;20079;-60
2021/04/07 04:59:43;;;;;;;9.00;7.03;;;;;;;;;;9995435;29;20086;-61
2021/04/07 05:04:41;;;;;;;19.83;11.25;;;;;;;;;;9996523;29;20484;-61
2021/04/07 05:09:39;;;;;;;11.00;9.05;;;;;;;;;;9997365;29;20075;-61
2021/04/07 05:14:36;;;;;;;9.95;8.43;;;;;;;;;;10013527;29;20072;-61
2021/04/07 05:19:33;;;;;;;16.30;10.63;;;;;;;;;;10010274;29;20528;-62
2021/04/07 05:24:31;;;;;;;9.45;7.78;;;;;;;;;;10015842;29;20075;-60
2021/04/07 05:29:29;;;;;;;17.70;9.85;;;;;;;;;;10018869;29;20083;-59
2021/04/07 05:34:28;;;;;;;9.77;7.43;;;;;;;;;;10015154;29;20094;-60
2021/04/07 05:39:25;;;;;;;8.60;7.50;;;;;;;;;;10016421;29;20520;-59
2021/04/07 05:44:24;;;;;;;9.13;7.60;;;;;;;;;;10019002;29;20102;-61
2021/04/07 05:49:21;;;;;;;10.50;7.68;;;;;;;;;;10015671;29;20519;-61
2021/04/07 05:54:19;;;;;;;9.73;6.30;;;;;;;;;;10014837;29;20528;-61
2021/04/07 05:59:16;;;;;;;9.32;7.70;;;;;;;;;;10018807;29;20067;-60
2021/04/07 06:04:15;;;;;;;13.00;7.32;;;;;;;;;;9999961;29;20080;-61
2021/04/07 06:09:13;;;;;;;9.32;7.60;;;;;;;;;;9998697;29;20087;-60
2021/04/07 06:14:10;;;;;;;7.25;6.55;;;;;;;;;;10002700;29;20067;-60
2021/04/07 06:19:07;;;;;;;9.90;7.43;;;;;;;;;;10011344;29;20071;-60
2021/04/07 06:24:06;;;;;;;14.02;8.27;;;;;;;;;;10014290;29;20086;-61
2021/04/07 06:29:04;;;;;;;9.02;6.72;;;;;;;;;;10037083;29;20118;-61
2021/04/07 06:34:01;;;;;;;11.70;9.63;;;;;;;;;;10026469;29;20094;-58
2021/04/07 06:38:59;;;;;;;18.38;9.63;;;;;;;;;;10011718;29;20052;-58
2021/04/07 06:43:57;;;;;;;15.70;10.70;;;;;;;;;;9998685;29;20502;-59
2021/04/07 06:48:56;;;;;;;9.50;8.30;;;;;;;;;;9998055;29;20087;-57
2021/04/07 06:53:53;;;;;;;16.00;10.73;;;;;;;;;;9998514;29;20386;-61
2021/04/07 06:58:51;;;;;;;11.98;8.60;;;;;;;;;;10032935;29;20067;-58
2021/04/07 07:03:49;;;;;;;12.80;7.60;;;;;;;;;;10043928;29;20086;-58
2021/04/07 07:08:48;;;;;;;13.95;8.95;;;;;;;;;;10024672;29;20072;-59
2021/04/07 07:13:46;;;;;;;11.60;8.60;;;;;;;;;;10026931;29;20087;-59
2021/04/07 07:18:44;;;;;;;6.30;5.72;;;;;;;;;;10042165;29;20067;-59
2021/04/07 07:23:45;;;;;;;8.95;8.02;;;;;;;;;;10025274;29;20079;-59
2021/04/07 07:28:43;;;;;;;8.20;6.40;;;;;;;;;;10031847;29;20464;-61
2021/04/07 07:33:41;;;;;;;14.93;8.70;;;;;;;;;;10026045;29;20492;-60
2021/04/07 07:38:45;;;;;;;16.50;11.60;;;;;;;;;;10016671;29;20079;-60
2021/04/07 07:43:42;;;;;;;13.38;7.50;;;;;;;;;;10018798;29;20071;-60
2021/04/07 07:48:40;;;;;;;10.30;8.93;;;;;;;;;;10026938;29;20044;-61
2021/04/07 07:53:38;;;;;;;21.52;16.15;;;;;;;;;;10042346;29;20431;-60
2021/04/07 07:58:41;;;;;;;9.20;5.93;;;;;;;;;;10041609;29;20071;-60
2021/04/07 08:03:39;;;;;;;19.98;12.15;;;;;;;;;;10041818;29;20086;-58
2021/04/07 08:08:36;;;;;;;5.95;5.45;;;;;;;;;;10041431;29;20509;-59
2021/04/07 08:13:35;;;;;;;10.57;8.25;;;;;;;;;;10040983;29;20060;-60
2021/04/07 08:18:33;;;;;;;19.65;12.90;;;;;;;;;;10040691;29;20071;-61
2021/04/07 08:23:32;;;;;;;13.32;9.75;;;;;;;;;;10040946;29;20084;-60
2021/04/07 08:28:29;;;;;;;115.53;58.42;;;;;;;;;;10039064;29;20525;-60
2021/04/07 08:33:27;;;;;;;37.72;22.88;;;;;;;;;;10024736;29;20099;-60
2021/04/07 08:38:31;;;;;;;32.13;19.13;;;;;;;;;;10000554;29;20410;-59
2021/04/07 08:43:29;;;;;;;15.35;13.65;;;;;;;;;;10000567;29;20047;-60
2021/04/07 08:48:35;;;;;;;16.48;14.70;;;;;;;;;;10014080;29;20402;-59
2021/04/07 08:53:37;;;;;;;11.55;9.93;;;;;;;;;;10017531;29;20071;-61
2021/04/07 08:58:34;;;;;;;28.77;19.48;;;;;;;;;;10017104;29;20504;-58
2021/04/07 09:03:34;;;;;;;14.55;12.95;;;;;;;;;;10032385;29;20074;-59
2021/04/07 09:08:31;;;;;;;21.88;15.13;;;;;;;;;;10003114;29;20074;-59
2021/04/07 09:13:31;;;;;;;15.10;12.65;;;;;;;;;;10000640;29;20044;-59
2021/04/07 09:18:32;;;;;;;21.15;13.18;;;;;;;;;;10000480;29;20067;-58
2021/04/07 09:23:31;;;;;;;23.75;11.13;;;;;;;;;;9999646;29;20044;-63
2021/04/07 09:28:33;;;;;;;22.73;14.30;;;;;;;;;;9996149;29;20095;-63
2021/04/07 09:33:31;;;;;;;22.85;14.98;;;;;;;;;;9995213;29;20099;-61
2021/04/07 09:38:30;;;;;;;24.17;14.88;;;;;;;;;;9995690;29;20076;-60
2021/04/07 09:43:29;;;;;;;27.40;14.93;;;;;;;;;;9998304;29;20075;-61
2021/04/07 09:48:41;;;;;;;34.10;18.77;;;;;;;;;;9998709;29;20079;-61
2021/04/07 09:53:41;;;;;;;29.33;17.83;;;;;;;;;;9997961;29;20091;-61
2021/04/07 09:58:41;;;;;;;47.58;24.77;;;;;;;;;;9999061;29;20075;-61
2021/04/07 10:03:46;;;;;;;37.30;18.20;;;;;;;;;;9999082;29;20040;-62
2021/04/07 10:08:45;;;;;;;22.70;14.27;;;;;;;;;;9999250;29;20068;-62
2021/04/07 10:13:43;;;;;;;26.35;14.85;;;;;;;;;;9998900;29;20060;-62
2021/04/07 10:18:40;;;;;;;26.40;16.80;;;;;;;;;;9998908;29;20044;-62
2021/04/07 10:23:39;;;;;;;14.88;12.38;;;;;;;;;;9996806;29;20115;-62
2021/04/07 10:28:38;;;;;;;15.40;11.82;;;;;;;;;;9998299;29;20052;-62
2021/04/07 10:33:35;;;;;;;19.60;11.05;;;;;;;;;;10001935;29;20075;-62
2021/04/07 10:38:35;;;;;;;22.33;14.10;;;;;;;;;;10005860;29;20465;-62
2021/04/07 10:43:34;;;;;;;11.45;9.70;;;;;;;;;;10005821;29;20048;-61
2021/04/07 10:48:32;;;;;;;14.80;11.30;;;;;;;;;;10005545;29;20079;-61
2021/04/07 10:53:31;;;;;;;18.35;13.60;;;;;;;;;;10005348;29;20044;-62
2021/04/07 10:58:29;;;;;;;25.00;16.05;;;;;;;;;;10005461;29;20071;-61
2021/04/07 11:03:30;;;;;;;14.82;10.73;;;;;;;;;;10004779;29;20489;-62
2021/04/07 11:08:38;;;;;;;19.90;12.50;;;;;;;;;;10004449;29;20091;-62
2021/04/07 11:13:36;;;;;;;38.58;24.42;;;;;;;;;;10005110;29;20084;-62
2021/04/07 11:18:33;;;;;;;18.60;12.90;;;;;;;;;;10004183;29;20099;-62
2021/04/07 11:23:31;;;;;;;10.40;7.30;;;;;;;;;;10003671;29;20055;-62
2021/04/07 11:28:29;;;;;;;22.58;14.68;;;;;;;;;;10003023;29;20102;-62
2021/04/07 11:33:31;;;;;;;19.35;12.40;;;;;;;;;;10003302;29;20051;-60
2021/04/07 11:38:30;;;;;;;13.73;10.40;;;;;;;;;;10002940;29;20087;-61
2021/04/07 11:43:35;;;;;;;9.70;7.95;;;;;;;;;;10002417;29;20163;-61
2021/04/07 11:48:33;;;;;;;12.25;6.93;;;;;;;;;;10003431;29;20442;-61
2021/04/07 11:53:30;;;;;;;10.00;7.57;;;;;;;;;;10002722;29;20088;-60
2021/04/07 11:58:27;;;;;;;16.35;8.68;;;;;;;;;;10003217;29;20044;-60
2021/04/07 12:03:25;;;;;;;15.73;12.73;;;;;;;;;;10002797;29;20075;-61
2021/04/07 12:08:23;;;;;;;14.93;10.25;;;;;;;;;;10002432;29;20076;-62
2021/04/07 12:13:21;;;;;;;10.85;8.48;;;;;;;;;;10002427;29;20409;-62
2021/04/07 12:18:18;;;;;;;16.58;12.13;;;;;;;;;;10001952;29;20087;-60
2021/04/07 12:23:18;;;;;;;14.85;10.77;;;;;;;;;;10002045;29;20466;-62
2021/04/07 12:28:15;;;;;;;22.77;17.20;;;;;;;;;;10000890;29;20091;-61
2021/04/07 12:33:12;;;;;;;15.50;9.80;;;;;;;;;;10001117;29;20048;-60
2021/04/07 12:38:10;;;;;;;14.27;8.40;;;;;;;;;;10001081;29;20087;-60
2021/04/07 12:43:08;;;;;;;20.60;11.88;;;;;;;;;;10001162;29;20454;-60
2021/04/07 12:48:08;;;;;;;17.45;9.40;;;;;;;;;;10000396;29;20079;-62
2021/04/07 12:53:05;;;;;;;20.38;13.30;;;;;;;;;;10000234;29;20170;-62
2021/04/07 12:58:04;;;;;;;10.88;8.85;;;;;;;;;;9999939;29;20075;-62
2021/04/07 13:03:04;;;;;;;17.88;12.05;;;;;;;;;;10000519;29;20048;-62
2021/04/07 13:08:01;;;;;;;18.05;12.35;;;;;;;;;;10000626;29;20075;-62
2021/04/07 13:12:59;;;;;;;15.80;10.40;;;;;;;;;;9999793;29;20084;-61
2021/04/07 13:17:56;;;;;;;9.18;7.88;;;;;;;;;;9999170;29;20556;-63
2021/04/07 13:22:54;;;;;;;22.27;13.77;;;;;;;;;;9998744;29;20052;-63
2021/04/07 13:27:53;;;;;;;17.27;10.95;;;;;;;;;;9998800;29;20144;-63
2021/04/07 13:32:59;;;;;;;19.65;14.73;;;;;;;;;;9999449;29;20386;-62
2021/04/07 13:38:02;;;;;;;25.15;15.70;;;;;;;;;;9997772;29;20087;-60
2021/04/07 13:43:00;;;;;;;13.73;9.07;;;;;;;;;;9999105;29;20071;-61
2021/04/07 13:48:01;;;;;;;18.75;8.70;;;;;;;;;;9997406;29;20083;-61
2021/04/07 13:53:00;;;;;;;13.60;9.70;;;;;;;;;;9997949;29;20063;-60
2021/04/07 13:57:57;;;;;;;25.13;17.40;;;;;;;;;;9998664;29;20072;-62
2021/04/07 14:02:56;;;;;;;11.55;9.18;;;;;;;;;;9997284;29;20048;-61
2021/04/07 14:08:03;;;;;;;15.82;11.48;;;;;;;;;;10002996;29;20080;-62
2021/04/07 14:13:05;;;;;;;38.90;24.83;;;;;;;;;;10010823;29;20402;-62
2021/04/07 14:18:03;;;;;;;16.25;7.43;;;;;;;;;;10010500;29;20059;-63
2021/04/07 14:23:01;;;;;;;19.67;14.32;;;;;;;;;;10011142;29;20075;-62
2021/04/07 14:28:00;;;;;;;16.65;11.65;;;;;;;;;;10010491;29;20521;-62
2021/04/07 14:32:57;;;;;;;28.30;18.45;;;;;;;;;;10010841;29;20059;-62
2021/04/07 14:37:55;;;;;;;21.15;12.35;;;;;;;;;;10024188;29;20505;-61
2021/04/07 14:42:52;;;;;;;12.70;9.75;;;;;;;;;;10019975;29;20051;-60
2021/04/07 14:47:50;;;;;;;11.60;9.23;;;;;;;;;;10020269;29;20498;-61
2021/04/07 14:52:49;;;;;;;20.60;12.90;;;;;;;;;;10018840;29;20075;-62
2021/04/07 14:57:47;;;;;;;14.75;10.70;;;;;;;;;;10010439;29;20493;-62
2021/04/07 15:02:44;;;;;;;23.98;17.02;;;;;;;;;;10009940;29;20088;-62
2021/04/07 15:07:45;;;;;;;15.48;9.55;;;;;;;;;;10009809;29;20449;-61
2021/04/07 15:12:43;;;;;;;23.35;14.40;;;;;;;;;;10010292;29;20095;-62
2021/04/07 15:17:40;;;;;;;18.05;11.68;;;;;;;;;;10009591;29;20044;-61
2021/04/07 15:22:38;;;;;;;13.82;10.48;;;;;;;;;;10002880;29;20498;-62
2021/04/07 15:27:45;;;;;;;10.65;7.90;;;;;;;;;;10003408;29;20087;-62
2021/04/07 15:32:43;;;;;;;14.25;9.00;;;;;;;;;;10003731;29;20079;-62
2021/04/07 15:37:40;;;;;;;9.30;7.57;;;;;;;;;;10002804;29;20055;-61
2021/04/07 15:42:38;;;;;;;11.75;7.55;;;;;;;;;;10003075;29;20080;-61
2021/04/07 15:47:35;;;;;;;21.63;13.27;;;;;;;;;;10014744;29;20093;-62
2021/04/07 15:52:35;;;;;;;5.90;5.30;;;;;;;;;;10016199;29;20530;-62
2021/04/07 15:57:33;;;;;;;20.02;15.07;;;;;;;;;;10001067;29;20723;-62
2021/04/07 16:02:31;;;;;;;17.55;15.38;;;;;;;;;;10002165;29;20074;-60
2021/04/07 16:07:29;;;;;;;14.30;11.63;;;;;;;;;;10012084;29;20517;-62
2021/04/07 16:12:26;;;;;;;15.60;11.63;;;;;;;;;;10014827;29;20520;-62
2021/04/07 16:17:23;;;;;;;21.00;15.45;;;;;;;;;;10011108;29;20127;-62
2021/04/07 16:22:22;;;;;;;28.42;17.95;;;;;;;;;;10017663;29;20068;-63
2021/04/07 16:27:19;;;;;;;35.05;21.35;;;;;;;;;;10019231;29;20087;-61
2021/04/07 16:32:17;;;;;;;24.52;16.45;;;;;;;;;;10025153;29;20046;-62
2021/04/07 16:37:14;;;;;;;26.10;17.52;;;;;;;;;;10016075;29;20500;-61
2021/04/07 16:42:13;;;;;;;20.42;13.32;;;;;;;;;;10017312;29;20089;-61
2021/04/07 16:47:10;;;;;;;15.10;11.07;;;;;;;;;;10003512;29;20076;-61
2021/04/07 16:52:08;;;;;;;20.55;14.73;;;;;;;;;;10020758;29;20079;-62
2021/04/07 16:57:06;;;;;;;15.55;11.48;;;;;;;;;;10038399;29;20097;-63
2021/04/07 17:02:04;;;;;;;33.15;20.77;;;;;;;;;;10038889;29;20044;-62
2021/04/07 17:07:02;;;;;;;20.05;16.73;;;;;;;;;;10038418;29;20517;-64
2021/04/07 17:11:59;;;;;;;16.27;12.57;;;;;;;;;;10038408;29;20043;-63
2021/04/07 17:16:57;;;;;;;19.75;14.63;;;;;;;;;;10037825;29;20047;-61
2021/04/07 17:21:55;;;;;;;20.13;12.80;;;;;;;;;;10037421;29;20565;-61
2021/04/07 17:26:52;;;;;;;17.08;13.70;;;;;;;;;;10037821;29;20470;-61
2021/04/07 17:31:51;;;;;;;27.27;16.65;;;;;;;;;;10037317;29;20079;-61
2021/04/07 17:36:48;;;;;;;24.75;17.50;;;;;;;;;;10038380;29;20086;-63
2021/04/07 17:41:46;;;;;;;16.40;13.07;;;;;;;;;;10037017;29;20075;-63
2021/04/07 17:46:44;;;;;;;70.93;46.58;;;;;;;;;;10028208;29;20075;-63
2021/04/07 17:51:42;;;;;;;28.02;22.27;;;;;;;;;;10009624;29;20482;-64
2021/04/07 17:56:40;;;;;;;50.90;29.27;;;;;;;;;;10025688;29;20178;-62
2021/04/07 18:01:38;;;;;;;34.20;21.17;;;;;;;;;;10036503;29;20075;-63
2021/04/07 18:06:36;;;;;;;37.47;24.55;;;;;;;;;;10036377;29;20079;-62
2021/04/07 18:11:33;;;;;;;50.17;31.30;;;;;;;;;;10037329;29;20051;-62
2021/04/07 18:16:31;;;;;;;52.83;31.10;;;;;;;;;;10036727;29;20395;-62
2021/04/07 18:21:29;;;;;;;44.08;30.20;;;;;;;;;;10037008;29;20075;-62
2021/04/07 18:26:26;;;;;;;34.97;23.45;;;;;;;;;;10036851;29;20083;-63
2021/04/07 18:31:23;;;;;;;30.83;19.60;;;;;;;;;;10035445;29;20068;-63
2021/04/07 18:36:21;;;;;;;44.17;30.63;;;;;;;;;;10036673;29;20489;-62
2021/04/07 18:41:19;;;;;;;15.73;12.55;;;;;;;;;;10036114;29;20078;-61
2021/04/07 18:46:17;;;;;;;13.43;12.02;;;;;;;;;;10033347;29;20091;-62
2021/04/07 18:51:14;;;;;;;18.20;12.60;;;;;;;;;;10032644;29;20513;-62
2021/04/07 18:56:12;;;;;;;27.05;20.83;;;;;;;;;;10037031;29;20441;-63
2021/04/07 19:01:11;;;;;;;16.83;13.75;;;;;;;;;;10042108;29;20074;-61
2021/04/07 19:06:08;;;;;;;25.95;22.77;;;;;;;;;;10042736;29;20083;-61
2021/04/07 19:11:10;;;;;;;25.13;19.50;;;;;;;;;;10043462;29;20058;-62
2021/04/07 19:16:07;;;;;;;20.88;17.98;;;;;;;;;;10042471;29;20051;-62
2021/04/07 19:21:06;;;;;;;28.25;20.00;;;;;;;;;;10040489;29;20052;-62
2021/04/07 19:26:03;;;;;;;16.25;14.10;;;;;;;;;;10042684;29;20087;-62
2021/04/07 19:31:01;;;;;;;18.13;15.60;;;;;;;;;;10042623;29;20413;-62
2021/04/07 19:35:59;;;;;;;15.90;14.10;;;;;;;;;;10041651;29;20203;-63
2021/04/07 19:40:57;;;;;;;19.02;14.73;;;;;;;;;;10042069;29;20074;-63
2021/04/07 19:45:54;;;;;;;23.15;17.48;;;;;;;;;;10039817;29;20091;-62
2021/04/07 19:50:51;;;;;;;19.45;15.35;;;;;;;;;;10041577;29;20060;-62
2021/04/07 19:55:49;;;;;;;26.95;17.80;;;;;;;;;;10042127;29;20051;-62
2021/04/07 20:00:47;;;;;;;19.15;14.18;;;;;;;;;;10041474;29;20172;-62
2021/04/07 20:05:45;;;;;;;24.85;16.00;;;;;;;;;;10040730;29;20079;-63
2021/04/07 20:10:42;;;;;;;27.80;17.92;;;;;;;;;;10040523;29;20094;-62
2021/04/07 20:15:40;;;;;;;56.33;35.13;;;;;;;;;;10040152;29;20434;-62
2021/04/07 20:20:39;;;;;;;25.75;18.30;;;;;;;;;;10040675;29;20079;-63
2021/04/07 20:25:37;;;;;;;40.20;27.90;;;;;;;;;;10040793;29;20490;-63
2021/04/07 20:30:39;;;;;;;36.70;24.42;;;;;;;;;;10040480;29;20096;-63
2021/04/07 20:35:37;;;;;;;32.13;21.83;;;;;;;;;;10040068;29;20079;-63
2021/04/07 20:40:35;;;;;;;22.90;17.45;;;;;;;;;;10039412;29;20054;-63
2021/04/07 20:45:35;;;;;;;36.45;22.73;;;;;;;;;;10039562;29;20091;-64
2021/04/07 20:50:32;;;;;;;37.25;23.63;;;;;;;;;;10039522;29;20056;-63
2021/04/07 20:55:29;;;;;;;25.33;18.52;;;;;;;;;;10039486;29;20426;-64
2021/04/07 21:00:28;;;;;;;32.92;21.20;;;;;;;;;;10039386;29;20055;-63
2021/04/07 21:05:26;;;;;;;36.85;23.08;;;;;;;;;;10039878;29;20063;-61
2021/04/07 21:10:23;;;;;;;24.10;15.68;;;;;;;;;;10039585;29;20086;-63
2021/04/07 21:15:20;;;;;;;41.00;25.55;;;;;;;;;;10039381;29;20497;-63
2021/04/07 21:20:19;;;;;;;39.00;22.33;;;;;;;;;;10038004;29;20087;-61
2021/04/07 21:25:16;;;;;;;34.72;22.60;;;;;;;;;;10039118;29;20080;-61
2021/04/07 21:30:14;;;;;;;40.55;21.88;;;;;;;;;;10038204;29;20083;-62
2021/04/07 21:35:12;;;;;;;39.50;23.50;;;;;;;;;;10038738;29;20236;-62
2021/04/07 21:40:11;;;;;;;34.92;22.35;;;;;;;;;;10036775;29;20078;-62
2021/04/07 21:45:09;;;;;;;46.75;30.40;;;;;;;;;;10038331;29;20056;-61
2021/04/07 21:50:07;;;;;;;36.97;22.63;;;;;;;;;;10038037;29;20517;-61
2021/04/07 21:55:04;;;;;;;24.38;16.77;;;;;;;;;;10037434;29;20063;-62
2021/04/07 22:00:08;;;;;;;19.25;13.60;;;;;;;;;;10037777;29;20058;-62
2021/04/07 22:05:06;;;;;;;23.70;17.05;;;;;;;;;;10038154;29;20075;-63
2021/04/07 22:10:07;;;;;;;27.77;16.88;;;;;;;;;;10037565;29;20090;-63
2021/04/07 22:15:09;;;;;;;21.63;16.95;;;;;;;;;;10037758;29;20134;-63
2021/04/07 22:20:07;;;;;;;24.13;16.38;;;;;;;;;;10037902;29;20421;-62
2021/04/07 22:25:08;;;;;;;23.60;16.33;;;;;;;;;;10037215;29;20083;-63
2021/04/07 22:30:07;;;;;;;30.40;18.90;;;;;;;;;;10040490;29;20703;-63
2021/04/07 22:35:06;;;;;;;50.63;24.95;;;;;;;;;;10045416;29;20043;-63
2021/04/07 22:40:04;;;;;;;19.75;12.73;;;;;;;;;;10043308;29;20055;-63
2021/04/07 22:45:01;;;;;;;16.90;11.52;;;;;;;;;;10044765;29;20099;-62
2021/04/07 22:49:59;;;;;;;23.77;15.07;;;;;;;;;;10044193;29;20082;-62
2021/04/07 22:54:57;;;;;;;14.63;11.35;;;;;;;;;;10044789;29;20078;-61
2021/04/07 22:59:54;;;;;;;14.02;11.95;;;;;;;;;;10044063;29;20075;-62
2021/04/07 23:04:52;;;;;;;19.17;13.38;;;;;;;;;;10044400;29;20051;-62
2021/04/07 23:09:49;;;;;;;13.10;10.35;;;;;;;;;;10043682;29;20086;-62
2021/04/07 23:14:47;;;;;;;17.20;12.57;;;;;;;;;;10043731;29;20047;-61
2021/04/07 23:19:45;;;;;;;22.20;16.48;;;;;;;;;;10043815;29;20079;-63
2021/04/07 23:24:42;;;;;;;26.67;17.05;;;;;;;;;;10043764;29;20052;-63
2021/04/07 23:29:40;;;;;;;22.95;14.15;;;;;;;;;;10042827;29;20135;-62
2021/04/07 23:34:38;;;;;;;18.45;12.32;;;;;;;;;;10040959;29;20051;-61
2021/04/07 23:39:35;;;;;;;20.15;13.60;;;;;;;;;;10042090;29;20068;-62
2021/04/07 23:44:33;;;;;;;11.90;9.90;;;;;;;;;;10042433;29;20067;-61
2021/04/07 23:49:30;;;;;;;15.07;10.52;;;;;;;;;;10041645;29;20075;-62
2021/04/07 23:54:28;;;;;;;13.57;10.13;;;;;;;;;;10042335;29;20056;-61
2021/04/07 23:59:25;;;;;;;12.57;10.23;;;;;;;;;;10042177;29;20040;-62
